KSAF/SAF METAR and TAF weather

Enter ICAO airport designator
Station Type Date Time Source
KSAF METAR 2019/04/25 01:53 UTC NOAA

KSAF 250153Z 00000KT 10SM BKN100 17/01 A3000 RMK AO2 SLP091 T01720006


Station Type Date Time Source
KSAF Decoded METAR 2019/04/25 01:53 UTC NOAA

SANTA FE COUNTY MUNICIPAL, NM, United States (KSAF) 35-37N 106-05W 1930M
Apr 24, 2019 - 09:53 PM EDT / 2019.04.25 0153 UTC
Wind: Calm:0
Visibility: 10 mile(s):0
Sky conditions: mostly cloudy
Temperature: 63.0 F (17.2 C)
Dew Point: 33.1 F (0.6 C)
Relative Humidity: 32%
Pressure (altimeter): 30 in. Hg (1015 hPa)
ob: KSAF 250153Z 00000KT 10SM BKN100 17/01 A3000 RMK AO2 SLP091 T01720006
cycle: 2

Station Type Date Time Source
KSAF TAF 2019/04/24 19:09 UTC NOAA

TAF
AMD KSAF 241906Z 2419/2518 36010KT P6SM SCT060
FM242100 32010KT P6SM VCSH SCT070
FM250200 36007KT P6SM FEW080
FM251100 36013KT P6SM SKC
FM251700 18007KT P6SM SCT070
AMD NOT SKED

Example: see airport list